Time;durP1;ratioP1;P1;durP2;ratioP2;P2;SDS_P1;SDS_P2;PMS_P1;PMS_P2;Temp;Humidity;BMP_temperature;BMP_pressure;BME280_temperature;BME280_humidity;BME280_pressure;Samples;Min_cycle;Max_cycle;Signal;HPM_P1;HPM_P2
2022/05/30 00:00:26;;;;;;;1.75;0.80;;;12.90;99.00;;;;;;6232188;23;20015;-76
2022/05/30 00:02:52;;;;;;;3.97;0.88;;;12.80;98.70;;;;;;6236644;23;20035;-73
2022/05/30 00:05:20;;;;;;;2.25;0.70;;;12.80;98.80;;;;;;6236292;23;20402;-72
2022/05/30 00:07:46;;;;;;;1.92;0.63;;;12.80;98.80;;;;;;6233103;23;20004;-72
2022/05/30 00:10:13;;;;;;;2.30;0.80;;;12.80;98.80;;;;;;6235184;23;20053;-75
2022/05/30 00:12:39;;;;;;;2.17;0.75;;;12.70;98.80;;;;;;6235766;23;20464;-74
2022/05/30 00:15:08;;;;;;;1.10;0.75;;;12.80;98.70;;;;;;6233417;23;20016;-73
2022/05/30 00:17:33;;;;;;;1.95;0.70;;;12.80;98.60;;;;;;6234617;23;20056;-74
2022/05/30 00:19:59;;;;;;;1.17;0.70;;;12.80;98.40;;;;;;6236323;23;20707;-75
2022/05/30 00:22:25;;;;;;;1.17;0.85;;;12.80;98.40;;;;;;6233027;23;20091;-75
2022/05/30 00:24:51;;;;;;;0.85;0.82;;;12.90;98.40;;;;;;6233114;23;20034;-77
2022/05/30 00:27:18;;;;;;;1.50;0.68;;;12.90;98.40;;;;;;6234013;23;20036;-79
2022/05/30 00:29:44;;;;;;;1.90;0.60;;;12.90;98.50;;;;;;6235796;23;20031;-77
2022/05/30 00:32:10;;;;;;;1.38;0.75;;;12.80;98.50;;;;;;6235767;23;20292;-77
2022/05/30 00:34:36;;;;;;;2.55;0.70;;;12.80;98.60;;;;;;6227203;23;20059;-76
2022/05/30 00:37:03;;;;;;;2.55;0.70;;;12.80;98.60;;;;;;6235167;23;20330;-75
2022/05/30 00:39:29;;;;;;;4.03;1.00;;;12.80;98.80;;;;;;6235046;23;20107;-84
2022/05/30 00:42:13;;;;;;;0.90;0.90;;;12.70;98.90;;;;;;6208094;23;20473;-83
2022/05/30 00:44:40;;;;;;;7.00;0.98;;;12.70;99.00;;;;;;6235561;23;20000;-83
2022/05/30 00:47:05;;;;;;;3.80;0.60;;;12.70;99.10;;;;;;6231766;23;20000;-83
2022/05/30 00:49:31;;;;;;;1.17;0.70;;;12.70;99.10;;;;;;6236149;23;20111;-82
2022/05/30 00:52:00;;;;;;;2.90;1.00;;;12.60;98.90;;;;;;6234277;23;20004;-82
2022/05/30 00:54:32;;;;;;;1.63;0.70;;;12.70;99.00;;;;;;6206264;23;20646;-82
2022/05/30 00:57:19;;;;;;;2.78;0.93;;;12.80;99.00;;;;;;6235664;23;20162;-82
2022/05/30 01:00:04;;;;;;;1.65;0.70;;;12.80;99.10;;;;;;6225160;23;20477;-82
2022/05/30 01:02:33;;;;;;;1.85;0.70;;;12.80;98.90;;;;;;6232942;23;20000;-82
2022/05/30 01:07:44;;;;;;;2.00;0.70;;;12.80;98.90;;;;;;6235277;23;20014;-76
2022/05/30 01:10:12;;;;;;;1.70;1.00;;;12.80;99.00;;;;;;6235147;23;20039;-77
2022/05/30 01:12:41;;;;;;;0.82;0.80;;;12.80;98.90;;;;;;6233282;23;20386;-78
2022/05/30 01:15:14;;;;;;;2.33;0.73;;;12.80;99.00;;;;;;6232663;23;20164;-76
2022/05/30 01:17:52;;;;;;;1.38;0.90;;;12.90;99.10;;;;;;6235835;23;20012;-76
2022/05/30 01:20:40;;;;;;;2.03;1.00;;;12.90;99.30;;;;;;6234125;23;20077;-77
2022/05/30 01:23:21;;;;;;;0.90;0.90;;;12.90;99.20;;;;;;6233783;23;20004;-77
2022/05/30 01:26:05;;;;;;;4.30;1.08;;;12.90;99.50;;;;;;6234253;23;20343;-77
2022/05/30 01:28:44;;;;;;;3.63;1.02;;;12.90;99.60;;;;;;6208084;23;20022;-77
2022/05/30 01:31:11;;;;;;;2.00;0.82;;;13.00;99.50;;;;;;6232719;23;20022;-77
2022/05/30 01:33:37;;;;;;;3.10;0.93;;;13.00;99.20;;;;;;6205125;23;20099;-77
2022/05/30 01:36:03;;;;;;;2.25;0.70;;;13.00;99.20;;;;;;6235426;23;20000;-82
2022/05/30 01:38:29;;;;;;;2.13;0.80;;;12.90;99.10;;;;;;6234196;23;20015;-82
2022/05/30 01:40:55;;;;;;;2.17;0.70;;;12.80;99.40;;;;;;6234949;23;20092;-82
2022/05/30 01:43:22;;;;;;;2.42;0.90;;;12.90;99.40;;;;;;6233552;23;20007;-82
2022/05/30 01:45:48;;;;;;;0.80;0.57;;;12.80;99.50;;;;;;6233513;23;20008;-83
2022/05/30 01:48:13;;;;;;;0.63;0.63;;;12.70;99.70;;;;;;6206968;23;20103;-82
2022/05/30 01:50:39;;;;;;;2.53;0.82;;;12.70;99.80;;;;;;6221661;23;20115;-82
2022/05/30 01:53:05;;;;;;;1.95;0.90;;;12.70;99.90;;;;;;6231311;23;20008;-81
2022/05/30 01:55:31;;;;;;;1.77;0.93;;;12.80;99.80;;;;;;6234569;23;20012;-78
2022/05/30 01:57:56;;;;;;;3.75;0.90;;;12.70;99.90;;;;;;6207611;23;20341;-77
2022/05/30 02:00:22;;;;;;;1.30;0.93;;;12.60;99.90;;;;;;6228812;23;20040;-77
2022/05/30 02:02:49;;;;;;;3.30;0.90;;;12.60;99.90;;;;;;6233669;23;20000;-77
2022/05/30 02:05:14;;;;;;;1.17;0.60;;;12.70;99.90;;;;;;6201523;23;20316;-77
2022/05/30 02:07:40;;;;;;;1.30;0.98;;;12.70;99.80;;;;;;6231004;23;20488;-77
2022/05/30 02:10:06;;;;;;;0.77;0.70;;;12.70;99.90;;;;;;6231583;23;20023;-76
2022/05/30 02:12:32;;;;;;;2.28;1.10;;;12.60;99.90;;;;;;6233589;23;20003;-76
2022/05/30 02:14:58;;;;;;;7.43;1.13;;;12.60;99.90;;;;;;6206822;23;20073;-77
2022/05/30 02:17:24;;;;;;;1.75;1.00;;;12.60;99.90;;;;;;6231744;23;20028;-76
2022/05/30 02:19:50;;;;;;;2.10;0.65;;;12.60;99.90;;;;;;6233098;23;20066;-78
2022/05/30 02:22:18;;;;;;;2.10;1.00;;;12.60;99.90;;;;;;6230358;23;20012;-77
2022/05/30 02:24:44;;;;;;;2.08;0.93;;;12.60;99.90;;;;;;6232831;23;20418;-78
2022/05/30 02:27:12;;;;;;;4.75;0.95;;;12.60;99.90;;;;;;6231644;23;20089;-79
2022/05/30 02:29:38;;;;;;;2.97;1.48;;;12.60;99.90;;;;;;6206620;23;20012;-76
2022/05/30 02:32:05;;;;;;;1.38;0.75;;;12.60;99.90;;;;;;6232811;23;20527;-76
2022/05/30 02:37:15;;;;;;;2.17;1.10;;;12.70;99.90;;;;;;6233133;23;20439;-76
2022/05/30 02:39:40;;;;;;;1.95;1.42;;;12.80;99.90;;;;;;6233651;23;20083;-76
2022/05/30 02:42:07;;;;;;;4.75;1.45;;;12.90;99.90;;;;;;6232073;23;20372;-76
2022/05/30 02:44:34;;;;;;;2.72;1.15;;;13.00;99.90;;;;;;6235951;23;20708;-76
2022/05/30 02:46:59;;;;;;;1.55;0.98;;;13.00;99.90;;;;;;6207150;23;20016;-76
2022/05/30 02:49:26;;;;;;;1.65;1.30;;;13.00;99.90;;;;;;6235460;23;20488;-76
2022/05/30 02:51:52;;;;;;;3.50;1.30;;;13.00;99.90;;;;;;6232622;23;20437;-76
2022/05/30 02:54:18;;;;;;;1.70;1.15;;;12.80;99.90;;;;;;6234504;23;20015;-77
2022/05/30 02:56:49;;;;;;;2.17;1.17;;;12.80;99.90;;;;;;6232185;23;19997;-76
2022/05/30 02:59:15;;;;;;;2.28;1.33;;;12.80;99.90;;;;;;6233916;23;20095;-76
2022/05/30 03:01:41;;;;;;;1.42;1.30;;;12.80;99.90;;;;;;6234742;23;20028;-78
2022/05/30 03:04:07;;;;;;;1.95;1.30;;;12.70;99.90;;;;;;6233828;23;20015;-78
2022/05/30 03:06:32;;;;;;;2.25;1.23;;;12.70;99.90;;;;;;6231175;23;20005;-76
2022/05/30 03:08:58;;;;;;;2.38;1.35;;;12.60;99.90;;;;;;6233300;23;20429;-76
2022/05/30 03:11:24;;;;;;;1.48;1.08;;;12.60;99.90;;;;;;6234618;23;20005;-76
2022/05/30 03:13:50;;;;;;;2.20;1.40;;;12.60;99.90;;;;;;6236481;23;20012;-77
2022/05/30 03:16:16;;;;;;;1.60;0.90;;;12.60;99.90;;;;;;6234771;23;20099;-77
2022/05/30 03:18:42;;;;;;;2.20;1.33;;;12.60;99.90;;;;;;6208353;23;20426;-77
2022/05/30 03:21:08;;;;;;;2.55;1.25;;;12.60;99.90;;;;;;6234884;23;20668;-77
2022/05/30 03:23:34;;;;;;;3.10;1.30;;;12.70;99.90;;;;;;6234341;23;20014;-76
2022/05/30 03:26:00;;;;;;;2.30;1.15;;;12.80;99.90;;;;;;6234984;23;20709;-78
2022/05/30 03:28:25;;;;;;;2.53;1.27;;;12.80;99.90;;;;;;6236278;23;20012;-77
2022/05/30 03:30:51;;;;;;;2.97;1.30;;;12.70;99.90;;;;;;6234716;23;20024;-77
2022/05/30 03:33:17;;;;;;;1.13;1.00;;;12.70;99.90;;;;;;6237423;23;20004;-76
2022/05/30 03:35:43;;;;;;;3.63;1.80;;;12.60;99.90;;;;;;6232614;23;20034;-77
2022/05/30 03:38:11;;;;;;;3.33;1.20;;;12.70;99.90;;;;;;6234018;23;20349;-76
2022/05/30 03:40:39;;;;;;;2.53;1.20;;;12.70;99.90;;;;;;6235819;23;20028;-78
2022/05/30 03:43:09;;;;;;;1.75;1.08;;;12.60;99.90;;;;;;6236677;23;20004;-77
2022/05/30 03:45:41;;;;;;;2.15;1.40;;;12.70;99.90;;;;;;6235763;23;20004;-76
2022/05/30 03:48:08;;;;;;;2.70;1.10;;;12.60;99.90;;;;;;6236582;23;20043;-77
2022/05/30 03:50:34;;;;;;;1.63;1.30;;;12.60;99.90;;;;;;6236234;23;20083;-77
2022/05/30 03:53:06;;;;;;;16.40;2.30;;;12.60;99.90;;;;;;6235793;23;20207;-77
2022/05/30 03:55:39;;;;;;;2.80;1.48;;;12.60;99.90;;;;;;6232933;23;20012;-78
2022/05/30 03:58:07;;;;;;;1.20;1.10;;;12.70;99.90;;;;;;6235789;23;20434;-76
2022/05/30 04:00:34;;;;;;;2.63;1.30;;;12.70;99.90;;;;;;6232795;23;20728;-76
2022/05/30 04:03:01;;;;;;;2.10;1.40;;;12.70;99.90;;;;;;6234618;23;20003;-77
2022/05/30 04:05:27;;;;;;;2.60;1.27;;;12.80;99.90;;;;;;6235468;23;20718;-77
2022/05/30 04:07:53;;;;;;;1.42;0.98;;;12.80;99.90;;;;;;6234163;23;19997;-77
2022/05/30 04:10:19;;;;;;;1.27;0.80;;;12.90;99.90;;;;;;6233731;23;20000;-76
2022/05/30 04:12:45;;;;;;;1.52;0.82;;;13.00;99.90;;;;;;6235672;23;20000;-77
2022/05/30 04:15:22;;;;;;;2.03;1.13;;;13.20;99.80;;;;;;6233905;23;20014;-76
2022/05/30 04:17:49;;;;;;;1.55;1.17;;;13.20;99.80;;;;;;6234011;23;20616;-78
2022/05/30 04:20:15;;;;;;;2.83;1.30;;;13.10;99.70;;;;;;6232590;23;20004;-76
2022/05/30 04:22:40;;;;;;;4.63;1.33;;;13.10;99.90;;;;;;6233531;23;20130;-76
2022/05/30 04:25:07;;;;;;;1.02;0.90;;;13.10;99.90;;;;;;6233437;23;20118;-76
2022/05/30 04:27:33;;;;;;;6.30;1.40;;;13.00;99.90;;;;;;6205538;23;20032;-78
2022/05/30 04:29:59;;;;;;;1.58;1.17;;;13.00;99.90;;;;;;6235163;22;20085;-76
2022/05/30 04:32:26;;;;;;;4.10;1.10;;;13.00;99.90;;;;;;6232873;23;20330;-76
2022/05/30 04:34:52;;;;;;;1.65;1.10;;;13.10;99.90;;;;;;6233043;23;20031;-77
2022/05/30 04:37:18;;;;;;;2.58;0.80;;;13.10;99.90;;;;;;6233895;23;20325;-76
2022/05/30 04:39:43;;;;;;;0.80;0.80;;;13.20;99.70;;;;;;6233946;23;20437;-76
2022/05/30 04:42:09;;;;;;;0.65;0.63;;;13.20;99.80;;;;;;6232405;23;20051;-76
2022/05/30 04:44:35;;;;;;;1.42;0.82;;;13.40;99.30;;;;;;6233074;23;20008;-77
2022/05/30 04:47:01;;;;;;;8.25;1.20;;;13.50;99.20;;;;;;6234687;23;20341;-76
2022/05/30 04:49:28;;;;;;;1.70;0.90;;;13.50;98.70;;;;;;6236067;23;20016;-76
2022/05/30 04:51:54;;;;;;;2.05;0.85;;;13.60;98.20;;;;;;6233252;23;19999;-77
2022/05/30 04:54:20;;;;;;;2.75;1.15;;;13.70;98.20;;;;;;6232934;23;20011;-76
2022/05/30 04:56:46;;;;;;;2.22;0.95;;;13.80;98.50;;;;;;6233577;23;20087;-76
2022/05/30 04:59:13;;;;;;;1.55;1.10;;;13.90;98.70;;;;;;6233276;23;20113;-77
2022/05/30 05:01:39;;;;;;;1.55;0.80;;;14.00;98.60;;;;;;6233528;23;20031;-76
2022/05/30 05:04:07;;;;;;;0.93;0.70;;;14.10;98.50;;;;;;6235040;23;20079;-76
2022/05/30 05:06:34;;;;;;;1.33;0.70;;;14.20;98.30;;;;;;6235809;23;20004;-78
2022/05/30 05:09:39;;;;;;;1.00;0.80;;;14.30;98.00;;;;;;6232834;23;20446;-78
2022/05/30 05:12:05;;;;;;;1.90;0.80;;;14.40;97.40;;;;;;6234567;23;20010;-73
2022/05/30 05:14:31;;;;;;;1.33;0.77;;;14.50;97.30;;;;;;6233987;23;20382;-76
2022/05/30 05:16:56;;;;;;;2.83;0.90;;;14.60;96.70;;;;;;6231356;23;20015;-74
2022/05/30 05:19:22;;;;;;;1.67;1.00;;;14.60;96.00;;;;;;6200351;23;20008;-74
2022/05/30 05:21:50;;;;;;;0.40;0.40;;;14.60;95.70;;;;;;6232978;23;20008;-74
2022/05/30 05:24:16;;;;;;;0.55;0.50;;;14.60;95.80;;;;;;6232792;23;20000;-73
2022/05/30 05:26:43;;;;;;;4.28;1.17;;;14.60;95.80;;;;;;6231445;23;20008;-73
2022/05/30 05:29:09;;;;;;;3.08;0.60;;;14.70;96.00;;;;;;6230721;23;20318;-74
2022/05/30 05:31:34;;;;;;;4.15;1.35;;;14.90;95.00;;;;;;6231981;23;20020;-75
2022/05/30 05:34:03;;;;;;;5.00;1.10;;;14.90;94.90;;;;;;6233381;23;20210;-73
2022/05/30 05:36:34;;;;;;;1.90;0.80;;;14.90;95.00;;;;;;6234419;23;20000;-74
2022/05/30 05:39:00;;;;;;;2.80;1.10;;;15.00;95.20;;;;;;6235464;23;20620;-76
2022/05/30 05:41:26;;;;;;;2.47;1.10;;;15.00;95.00;;;;;;6231030;23;20008;-76
2022/05/30 05:43:55;;;;;;;2.95;0.88;;;15.10;95.20;;;;;;6234601;23;20369;-75
2022/05/30 05:46:31;;;;;;;1.73;1.00;;;15.20;95.10;;;;;;6232766;23;20018;-75
2022/05/30 05:48:58;;;;;;;3.42;0.95;;;15.30;94.60;;;;;;6232873;23;20035;-75
2022/05/30 05:51:25;;;;;;;1.73;0.70;;;15.30;94.70;;;;;;6205331;23;20461;-74
2022/05/30 05:53:52;;;;;;;2.80;0.95;;;15.40;94.60;;;;;;6233249;23;20004;-73
2022/05/30 05:56:23;;;;;;;1.40;0.85;;;15.40;94.40;;;;;;6232326;23;20346;-74
2022/05/30 05:58:49;;;;;;;1.80;0.80;;;15.50;94.50;;;;;;6232819;23;20063;-73
2022/05/30 06:01:22;;;;;;;2.08;0.80;;;15.50;94.20;;;;;;6229442;23;20004;-75
2022/05/30 06:03:47;;;;;;;1.92;0.68;;;15.50;94.20;;;;;;6205813;23;20523;-76
2022/05/30 06:06:13;;;;;;;1.13;0.73;;;15.60;93.10;;;;;;6233138;23;20000;-77
2022/05/30 06:08:39;;;;;;;2.13;0.60;;;15.60;92.60;;;;;;6236020;23;20621;-74
2022/05/30 06:11:05;;;;;;;4.07;0.70;;;15.60;92.90;;;;;;6230341;23;20027;-74
2022/05/30 06:13:31;;;;;;;1.52;0.60;;;15.60;92.20;;;;;;6233976;23;20016;-75
2022/05/30 06:15:57;;;;;;;2.00;0.70;;;15.60;92.40;;;;;;6234912;23;20000;-74
2022/05/30 06:18:23;;;;;;;1.38;0.70;;;15.70;92.50;;;;;;6233649;23;20011;-74
2022/05/30 06:20:48;;;;;;;0.50;0.50;;;15.70;91.60;;;;;;6234657;23;20425;-74
2022/05/30 06:23:14;;;;;;;0.88;0.55;;;15.80;91.00;;;;;;6234372;23;20075;-75
2022/05/30 06:25:42;;;;;;;1.48;0.50;;;15.80;91.50;;;;;;6235326;23;20012;-74
2022/05/30 06:28:08;;;;;;;2.20;0.65;;;16.00;92.00;;;;;;6235140;23;20008;-74
2022/05/30 06:30:36;;;;;;;2.28;0.65;;;16.10;92.20;;;;;;6233517;23;20170;-74
2022/05/30 06:33:01;;;;;;;0.32;0.32;;;16.20;91.20;;;;;;6198366;23;20438;-74
2022/05/30 06:35:27;;;;;;;2.65;0.60;;;16.30;91.00;;;;;;6232428;23;20019;-74
2022/05/30 06:37:53;;;;;;;0.93;0.70;;;16.40;91.00;;;;;;6233357;23;20090;-74
2022/05/30 06:40:18;;;;;;;1.33;0.57;;;16.40;91.50;;;;;;6233704;23;20008;-74
2022/05/30 06:42:44;;;;;;;0.75;0.43;;;16.50;86.90;;;;;;6235382;23;20020;-71
2022/05/30 06:45:10;;;;;;;1.27;0.60;;;16.40;90.50;;;;;;6237988;23;20008;-72
2022/05/30 06:47:35;;;;;;;2.78;0.77;;;16.30;91.30;;;;;;6236131;23;20120;-74
2022/05/30 06:50:01;;;;;;;1.23;0.50;;;16.30;90.70;;;;;;6233894;23;20046;-73
2022/05/30 06:52:27;;;;;;;1.25;0.70;;;16.30;90.00;;;;;;6237561;23;20012;-73
2022/05/30 06:54:52;;;;;;;2.13;0.65;;;16.30;90.50;;;;;;6237537;23;20004;-73
2022/05/30 07:00:06;;;;;;;2.10;0.60;;;16.50;90.90;;;;;;6233668;23;20062;-72
2022/05/30 07:02:31;;;;;;;0.82;0.52;;;16.60;89.10;;;;;;6235794;23;20012;-71
2022/05/30 07:04:57;;;;;;;0.85;0.50;;;16.60;86.80;;;;;;6238646;23;20012;-73
2022/05/30 07:07:23;;;;;;;1.38;0.60;;;16.50;90.50;;;;;;6237099;23;20062;-84
2022/05/30 07:09:48;;;;;;;1.15;0.50;;;16.50;90.70;;;;;;6239050;23;20067;-81
2022/05/30 07:12:14;;;;;;;1.20;0.55;;;16.40;89.30;;;;;;6238389;23;20554;-85
2022/05/30 07:14:40;;;;;;;0.47;0.40;;;16.30;86.60;;;;;;6237984;23;20031;-85
2022/05/30 07:17:10;;;;;;;2.38;0.40;;;16.30;87.70;;;;;;6236404;23;20440;-84
2022/05/30 07:19:35;;;;;;;0.63;0.40;;;16.30;85.80;;;;;;6239147;23;20349;-84
2022/05/30 07:22:02;;;;;;;0.85;0.50;;;16.30;85.80;;;;;;6238975;23;20000;-83
2022/05/30 07:24:28;;;;;;;0.57;0.52;;;16.20;85.60;;;;;;6239424;23;20004;-84
2022/05/30 07:26:54;;;;;;;4.47;0.55;;;16.10;86.50;;;;;;6236622;23;20000;-85
2022/05/30 07:29:20;;;;;;;1.45;0.55;;;16.10;87.00;;;;;;6235919;23;20774;-83
2022/05/30 07:31:45;;;;;;;1.80;0.65;;;16.00;88.50;;;;;;6247641;23;20104;-84
2022/05/30 07:34:11;;;;;;;0.95;0.40;;;16.00;89.00;;;;;;6245826;23;20199;-84
2022/05/30 07:36:36;;;;;;;0.95;0.60;;;15.90;88.70;;;;;;6249130;23;20064;-84
2022/05/30 07:39:03;;;;;;;0.68;0.60;;;15.80;88.60;;;;;;6248538;23;20024;-85
2022/05/30 07:41:30;;;;;;;0.75;0.43;;;15.70;89.20;;;;;;6249736;23;20024;-83
2022/05/30 07:43:56;;;;;;;2.15;0.70;;;15.60;90.70;;;;;;6242381;23;20772;-85
2022/05/30 07:46:22;;;;;;;2.38;0.93;;;15.70;90.40;;;;;;6210936;23;20004;-82
2022/05/30 07:48:48;;;;;;;1.65;0.70;;;15.70;90.50;;;;;;6243154;23;20715;-85
2022/05/30 07:51:15;;;;;;;2.72;0.68;;;15.80;90.50;;;;;;6242373;23;20488;-85
2022/05/30 07:53:42;;;;;;;1.02;0.52;;;15.70;90.20;;;;;;6243381;23;20012;-85
2022/05/30 07:56:11;;;;;;;0.40;0.40;;;15.80;90.70;;;;;;6246481;23;20011;-82
2022/05/30 07:58:37;;;;;;;2.88;0.80;;;15.80;91.00;;;;;;6244652;23;20000;-87
2022/05/30 08:01:04;;;;;;;1.65;0.60;;;15.80;90.20;;;;;;6236812;23;20022;-83
2022/05/30 08:03:30;;;;;;;3.15;0.60;;;15.80;90.70;;;;;;6234199;23;20039;-84
2022/05/30 08:06:04;;;;;;;1.17;0.60;;;15.80;90.90;;;;;;6234955;23;20026;-86
2022/05/30 08:08:30;;;;;;;1.27;0.50;;;15.90;91.50;;;;;;6237237;23;20079;-85
2022/05/30 08:10:55;;;;;;;2.55;0.57;;;16.00;90.80;;;;;;6238402;23;20032;-86
2022/05/30 08:13:21;;;;;;;0.90;0.47;;;16.10;90.30;;;;;;6237378;23;20457;-85
2022/05/30 08:15:47;;;;;;;1.02;0.50;;;16.20;90.20;;;;;;6236826;23;20054;-86
2022/05/30 08:18:18;;;;;;;1.00;0.60;;;16.20;88.80;;;;;;6235985;23;20000;-85
2022/05/30 08:20:44;;;;;;;1.38;0.60;;;16.30;87.40;;;;;;6235819;23;20004;-86
2022/05/30 08:23:11;;;;;;;1.65;0.65;;;16.30;86.30;;;;;;6236051;23;20004;-86
2022/05/30 08:25:38;;;;;;;1.27;0.50;;;16.50;87.40;;;;;;6235688;23;20142;-85
2022/05/30 08:28:04;;;;;;;0.85;0.50;;;16.70;84.10;;;;;;6233114;23;20011;-86
2022/05/30 08:30:30;;;;;;;0.98;0.47;;;16.80;85.50;;;;;;6234281;23;20028;-84
2022/05/30 08:32:56;;;;;;;2.47;0.98;;;16.90;86.40;;;;;;6235471;23;20039;-86
2022/05/30 08:35:22;;;;;;;1.48;0.70;;;17.00;83.80;;;;;;6233496;23;20067;-84
2022/05/30 08:37:48;;;;;;;1.90;0.60;;;17.10;82.10;;;;;;6230282;23;20437;-87
2022/05/30 08:43:19;;;;;;;1.77;0.60;;;17.20;82.30;;;;;;6234655;23;20019;-84
2022/05/30 08:45:46;;;;;;;0.75;0.60;;;17.40;78.50;;;;;;6237343;23;20046;-85
2022/05/30 08:48:25;;;;;;;1.17;0.52;;;17.40;77.20;;;;;;6235180;23;20004;-85
2022/05/30 08:51:15;;;;;;;1.25;0.47;;;17.40;78.20;;;;;;6210396;23;20425;-84
2022/05/30 08:53:47;;;;;;;1.48;0.70;;;17.60;78.80;;;;;;6235708;23;20615;-83
2022/05/30 08:56:23;;;;;;;2.33;0.57;;;17.70;78.70;;;;;;6232203;23;20079;-85
2022/05/30 08:59:21;;;;;;;1.75;0.50;;;17.70;76.80;;;;;;6235347;23;20082;-85
2022/05/30 09:01:55;;;;;;;0.70;0.60;;;17.70;80.70;;;;;;6231308;23;20032;-85
2022/05/30 09:04:43;;;;;;;0.80;0.40;;;17.70;79.70;;;;;;6236359;23;20107;-86
2022/05/30 09:07:31;;;;;;;0.93;0.50;;;17.70;79.70;;;;;;6233328;23;20027;-83
2022/05/30 09:10:21;;;;;;;0.50;0.50;;;17.70;81.80;;;;;;6232062;23;20008;-83
2022/05/30 09:12:56;;;;;;;0.43;0.35;;;17.80;83.10;;;;;;6232406;23;20003;-85
2022/05/30 09:15:48;;;;;;;1.35;0.60;;;17.90;80.20;;;;;;6234712;23;20000;-82
2022/05/30 09:18:22;;;;;;;0.90;0.40;;;17.90;79.80;;;;;;6225401;23;20012;-83
2022/05/30 09:20:49;;;;;;;1.20;0.50;;;17.80;76.90;;;;;;6235313;23;20241;-86
2022/05/30 09:23:20;;;;;;;0.85;0.60;;;17.70;78.00;;;;;;6236021;23;20029;-83
2022/05/30 09:26:07;;;;;;;2.22;0.60;;;17.60;78.90;;;;;;6235708;23;20694;-82
2022/05/30 09:28:39;;;;;;;3.38;0.60;;;17.60;78.90;;;;;;6236990;23;20054;-83
2022/05/30 09:31:28;;;;;;;5.00;0.70;;;17.60;79.20;;;;;;6234729;23;20453;-86
2022/05/30 09:33:57;;;;;;;0.73;0.52;;;17.60;79.40;;;;;;6236222;23;20008;-84
2022/05/30 09:36:28;;;;;;;7.55;0.68;;;17.60;79.20;;;;;;6233839;23;20436;-84
2022/05/30 09:39:06;;;;;;;1.55;0.68;;;17.60;80.50;;;;;;6234064;23;20030;-82
2022/05/30 09:41:38;;;;;;;2.08;0.90;;;17.60;79.40;;;;;;6234301;23;20007;-83
2022/05/30 09:44:26;;;;;;;1.38;0.50;;;17.50;81.00;;;;;;6233667;23;20000;-84
2022/05/30 09:47:02;;;;;;;3.42;0.60;;;17.50;80.20;;;;;;6235190;23;20479;-83
2022/05/30 09:49:36;;;;;;;0.85;0.60;;;17.40;81.70;;;;;;6235260;23;20023;-85
2022/05/30 09:52:38;;;;;;;1.83;0.80;;;17.40;81.60;;;;;;6235304;23;20050;-85
2022/05/30 09:55:24;;;;;;;2.17;0.63;;;17.30;81.10;;;;;;6235034;23;20115;-84
2022/05/30 09:57:52;;;;;;;0.47;0.40;;;17.40;82.40;;;;;;6208072;23;20063;-80
2022/05/30 10:00:19;;;;;;;1.67;0.60;;;17.40;83.70;;;;;;6235230;23;20338;-86
2022/05/30 10:02:57;;;;;;;0.93;0.45;;;17.30;83.80;;;;;;6232810;23;20051;-84
2022/05/30 10:05:30;;;;;;;2.28;0.73;;;17.30;82.60;;;;;;6232260;23;20007;-82
2022/05/30 10:07:58;;;;;;;1.27;0.50;;;17.30;82.30;;;;;;6233832;23;20004;-84
2022/05/30 10:10:27;;;;;;;7.68;1.20;;;17.30;82.80;;;;;;6232828;23;20016;-83
2022/05/30 10:13:01;;;;;;;0.90;0.60;;;17.30;82.30;;;;;;6231247;23;19996;-84
2022/05/30 10:15:32;;;;;;;1.15;0.85;;;17.20;83.00;;;;;;6233159;23;20016;-82
2022/05/30 10:18:23;;;;;;;0.80;0.77;;;17.30;85.00;;;;;;6235325;23;20035;-85
2022/05/30 10:21:17;;;;;;;2.15;0.75;;;17.30;83.90;;;;;;6210748;23;20370;-85
2022/05/30 10:30:23;;;;;;;1.50;0.80;;;17.20;85.90;;;;;;6236559;23;20030;-85
2022/05/30 10:32:55;;;;;;;2.53;0.90;;;17.20;85.80;;;;;;6207814;23;20008;-86
2022/05/30 10:35:32;;;;;;;;;;;17.20;84.50;;;;;;6237080;23;20081;-87
2022/05/30 10:38:19;;;;;;;0.88;0.57;;;17.30;85.30;;;;;;6236123;23;19992;-86
2022/05/30 10:41:11;;;;;;;3.40;0.98;;;17.40;85.30;;;;;;6234365;23;20607;-86
2022/05/30 10:43:49;;;;;;;3.88;0.90;;;17.30;85.10;;;;;;6208000;23;20499;-85
2022/05/30 10:46:48;;;;;;;1.08;0.65;;;17.40;85.60;;;;;;6234224;23;20107;-85
2022/05/30 10:49:17;;;;;;;2.15;0.52;;;17.40;82.80;;;;;;6235144;23;20063;-83
2022/05/30 10:52:02;;;;;;;3.33;0.80;;;17.30;81.80;;;;;;6237671;23;20032;-82
2022/05/30 10:54:45;;;;;;;1.30;0.65;;;17.30;81.20;;;;;;6235075;23;20461;-85
2022/05/30 10:57:29;;;;;;;2.75;0.63;;;17.30;82.60;;;;;;6236831;23;20000;-85
2022/05/30 11:00:11;;;;;;;2.70;0.70;;;17.40;81.70;;;;;;6235948;23;20077;-82
2022/05/30 11:03:02;;;;;;;1.92;0.88;;;17.40;81.70;;;;;;6234144;23;20342;-85
2022/05/30 11:05:52;;;;;;;1.17;0.55;;;17.40;82.00;;;;;;6236789;23;20509;-81
2022/05/30 11:08:29;;;;;;;1.17;0.70;;;17.40;82.90;;;;;;6236592;23;20015;-84
2022/05/30 11:11:14;;;;;;;1.80;0.68;;;17.40;81.00;;;;;;6234799;23;20064;-84
2022/05/30 11:13:59;;;;;;;2.30;1.02;;;17.50;81.10;;;;;;6233817;23;20031;-80
2022/05/30 11:16:47;;;;;;;3.00;0.60;;;17.40;82.70;;;;;;6236866;23;20311;-83
2022/05/30 11:19:31;;;;;;;1.67;0.80;;;17.50;81.10;;;;;;6236477;23;20008;-84
2022/05/30 11:22:19;;;;;;;2.45;0.60;;;17.40;82.90;;;;;;6235309;23;20465;-81
2022/05/30 11:24:51;;;;;;;1.83;0.80;;;17.40;80.10;;;;;;6234336;23;20697;-81
2022/05/30 11:27:39;;;;;;;2.08;1.00;;;17.30;81.40;;;;;;6237218;23;20342;-80
2022/05/30 11:30:14;;;;;;;2.90;0.70;;;17.30;81.10;;;;;;6243251;23;20088;-82
2022/05/30 11:33:19;;;;;;;1.80;0.60;;;17.30;82.50;;;;;;6237855;23;20015;-84
2022/05/30 11:35:48;;;;;;;0.95;0.60;;;17.30;83.70;;;;;;6238204;23;20084;-83
2022/05/30 11:38:23;;;;;;;4.00;0.63;;;17.30;81.30;;;;;;6240111;23;20000;-83
2022/05/30 11:41:07;;;;;;;2.53;0.70;;;17.30;83.20;;;;;;6234845;23;20049;-82
2022/05/30 11:43:59;;;;;;;3.17;0.80;;;17.30;84.50;;;;;;6236494;23;20028;-83
2022/05/30 11:46:54;;;;;;;2.23;0.93;;;17.40;84.50;;;;;;6234473;23;20598;-84
2022/05/30 11:49:42;;;;;;;3.20;1.00;;;17.40;82.40;;;;;;6166295;23;20019;-81
2022/05/30 11:53:01;;;;;;;8.30;2.90;;;17.30;82.80;;;;;;6232729;23;19996;-86
2022/05/30 11:55:48;;;;;;;2.63;0.85;;;17.30;83.10;;;;;;6085835;23;20491;-84
2022/05/30 11:59:04;;;;;;;2.28;0.93;;;17.30;83.30;;;;;;6220139;23;20074;-84
2022/05/30 12:01:34;;;;;;;2.80;0.70;;;17.40;81.30;;;;;;6236612;23;20008;-85
2022/05/30 12:04:38;;;;;;;1.70;0.73;;;17.40;82.30;;;;;;6237019;23;20001;-84
2022/05/30 12:07:24;;;;;;;3.08;0.70;;;17.40;83.00;;;;;;6235620;23;20074;-82
2022/05/30 12:10:19;;;;;;;1.33;0.73;;;17.40;84.30;;;;;;6233076;23;20122;-85
2022/05/30 12:13:10;;;;;;;1.48;0.82;;;17.40;82.90;;;;;;6235130;23;20015;-84
2022/05/30 12:15:57;;;;;;;6.45;0.88;;;17.40;81.80;;;;;;6236201;23;20004;-82
2022/05/30 12:24:34;;;;;;;2.78;0.75;;;17.50;84.10;;;;;;6237446;23;20047;-82
2022/05/30 12:27:04;;;;;;;2.92;1.10;;;17.60;84.00;;;;;;6236753;23;20000;-83
2022/05/30 12:29:37;;;;;;;2.05;0.57;;;17.60;81.70;;;;;;6234289;23;20019;-83
2022/05/30 12:32:29;;;;;;;1.63;1.30;;;17.50;83.00;;;;;;6234693;23;20353;-83
2022/05/30 12:35:00;;;;;;;2.90;0.93;;;17.60;84.70;;;;;;6236369;23;20007;-84
2022/05/30 12:37:38;;;;;;;1.63;0.57;;;17.60;81.10;;;;;;6235363;23;20311;-82
2022/05/30 12:40:09;;;;;;;2.75;1.40;;;17.50;81.40;;;;;;6238618;23;20010;-82
2022/05/30 12:42:42;;;;;;;1.30;0.70;;;17.50;82.30;;;;;;6237652;23;20019;-85
2022/05/30 12:45:20;;;;;;;1.98;0.60;;;17.50;83.30;;;;;;6236030;23;20004;-82
2022/05/30 12:47:55;;;;;;;1.80;0.68;;;17.50;82.50;;;;;;6235840;23;20023;-83
2022/05/30 12:50:32;;;;;;;2.08;0.70;;;17.40;82.30;;;;;;6237137;23;20020;-84
2022/05/30 12:53:01;;;;;;;1.77;0.95;;;17.50;82.90;;;;;;6234864;23;20050;-82
2022/05/30 12:55:41;;;;;;;0.75;0.55;;;17.50;83.50;;;;;;6234435;22;20031;-81
2022/05/30 12:58:13;;;;;;;1.90;0.70;;;17.60;83.80;;;;;;6227026;23;20175;-76
2022/05/30 13:00:42;;;;;;;1.73;0.70;;;17.60;82.90;;;;;;6230496;23;20005;-74
2022/05/30 13:03:23;;;;;;;2.05;0.75;;;17.60;82.40;;;;;;6236655;23;20077;-76
2022/05/30 13:06:20;;;;;;;1.27;1.13;;;17.60;81.70;;;;;;6237919;23;20051;-75
2022/05/30 13:09:10;;;;;;;1.95;0.70;;;17.60;82.50;;;;;;6236937;23;20065;-76
2022/05/30 13:12:18;;;;;;;3.40;0.85;;;17.60;83.30;;;;;;6238315;23;20004;-75
2022/05/30 13:14:49;;;;;;;1.80;1.05;;;17.70;83.30;;;;;;6215645;23;20453;-75
2022/05/30 13:17:18;;;;;;;1.67;0.65;;;17.70;82.00;;;;;;6234129;23;20043;-76
2022/05/30 13:19:53;;;;;;;3.00;0.70;;;17.60;81.40;;;;;;6236284;23;20398;-75
2022/05/30 13:22:42;;;;;;;1.45;0.75;;;17.50;81.80;;;;;;6237806;22;20008;-74
2022/05/30 13:25:11;;;;;;;1.15;0.40;;;17.60;82.50;;;;;;6235523;22;20103;-74
2022/05/30 13:27:37;;;;;;;3.42;0.60;;;17.50;81.80;;;;;;6237107;22;20012;-74
2022/05/30 13:30:15;;;;;;;2.13;0.77;;;17.50;83.00;;;;;;6234050;22;20126;-75
2022/05/30 13:32:41;;;;;;;1.50;0.80;;;17.60;82.10;;;;;;6236908;23;20054;-75
2022/05/30 13:35:12;;;;;;;2.88;0.95;;;17.60;83.50;;;;;;6230500;23;20008;-74